Portada
METAR-TAF:

METAR-TAF

Aeroports :

Tarvisio, Itàlia

latitud: 46-30N, longitud: 013-35E, altitud: 777 m

Observació

L'informe es va fer fa 1 hora i 53 minuts, a les 13:55 UTC
Vent 1 kt del Oest/Sud-Oest amb ràfegues de 13 kt
Temperatura 27°C
Humitat 51%
Pressió 1018 hPa
Visibilitat 10 km o més
sense núvols per sota de 1500 mi sense presència de cumulonimbus.

METAR: LIVO 191355Z 25001G13KT CAVOK 27/16 Q1018 RMK BKN BKN200 VIS MIN 9999

Hora: 17:48 (15:48 UTC)


TAF: manca

Observacions i pronòstics meteorològics de més de 4000 aeroports (METAR i TAF).

Les estacions disponibles són els punts grocs i vermells al mapa.

Posi el ratolí al punt desitjat per veure el nom de l'estació.

Feu clic per veure les observacions i els pronòstics meteorològics.

Per canviar el mapa: feu clic els botons verds amb una creu de color negre per apropar; al botó verd amb un guió per allunyar la imatge; o en les fletxes verdes per a mapes adjacents.


METAR-TAF: